GW3KLB Llansilin UK current weather conditions

sailwx.info

Wind from 065 at 1 knots gusting 4

Air temperature 14.4° C
Dewpoint 13.5° C

Last reported at 2019-Jun-25 23:00 UTC.
Time now 2019-Jun-26 00:00 UTC

Location: N 52°51' W 003°12'.
View on Google Maps.

See reports from other nearby stations

  
Tides and Currents Weather Stations Pressure Air Temp Water Temp Dewpoint Dewpoint Depression Visibility Wind Speed Wind Dir Waves Ship Positions
date/time (UTC)wind fromknots sea level pressurealtimeterstation pressurevisibilityair tempwater tempwave heightnotes
2019-Jun-25 23:00 065 1 gusting 4 14.4
2019-Jun-25 22:50 069 4 gusting 6 14.4
2019-Jun-25 22:40 051 1 gusting 2 14.4
2019-Jun-25 22:30 056 2 gusting 5 14.4
2019-Jun-25 22:20 043 3 gusting 5 14.4
2019-Jun-25 22:10 039 2 gusting 6 14.4
2019-Jun-25 22:00 078 2 gusting 5 15.0
2019-Jun-25 21:50 085 1 gusting 2 15.0
2019-Jun-25 21:40 085 1 gusting 2 15.0
2019-Jun-25 21:30 066 2 gusting 4 15.0
2019-Jun-25 21:20 064 2 gusting 4 15.0
2019-Jun-25 21:00 061 3 gusting 5 15.0
2019-Jun-25 20:50 071 2 gusting 4 15.0
2019-Jun-25 20:40 078 2 gusting 3 15.6
2019-Jun-25 20:30 062 3 gusting 6 15.6
2019-Jun-25 20:20 062 2 gusting 3 15.6
2019-Jun-25 20:10 095 1 gusting 4 15.6
2019-Jun-25 20:00 067 2 gusting 5 15.6
2019-Jun-25 19:50 066 3 gusting 6 16.1
2019-Jun-25 19:40 058 2 gusting 5 16.1
2019-Jun-25 19:30 052 4 gusting 6 16.1
2019-Jun-25 19:20 060 2 gusting 5 16.1
2019-Jun-25 19:10 068 2 gusting 5 16.1
2019-Jun-25 19:00 016 2 gusting 5 16.7
2019-Jun-25 18:50 054 1 gusting 4 16.7
2019-Jun-25 18:40 041 1 gusting 2 16.7
2019-Jun-25 18:30 044 2 gusting 5 16.7
2019-Jun-25 18:20 031 1 gusting 2 16.7
2019-Jun-25 18:10 027 2 gusting 3 16.7
2019-Jun-25 18:00 358 1 gusting 2 16.7
2019-Jun-25 17:50 033 1 gusting 3 16.7
2019-Jun-25 17:40 049 3 gusting 6 16.7
2019-Jun-25 17:30 049 1 gusting 3 17.2
2019-Jun-25 17:20 054 1 gusting 2 17.2
2019-Jun-25 17:10 044 3 gusting 4 17.2
2019-Jun-25 17:00 043 2 gusting 4 17.2
2019-Jun-25 16:50 069 1 gusting 2 17.2
2019-Jun-25 16:40 064 2 gusting 5 17.8
2019-Jun-25 16:30 048 3 gusting 5 17.8
2019-Jun-25 16:20 070 2 gusting 3 17.8
2019-Jun-25 16:10 095 2 gusting 5 17.8
2019-Jun-25 16:00 043 2 gusting 4 17.8
2019-Jun-25 15:50 055 2 gusting 4 17.8
2019-Jun-25 15:40 073 3 gusting 4 17.8
2019-Jun-25 15:30 060 2 gusting 5 17.8
2019-Jun-25 15:20 049 1 gusting 4 17.8
2019-Jun-25 15:10 064 2 gusting 5 17.8
2019-Jun-25 09:00 050 1 gusting 6 15.6
2019-Jun-25 08:50 328 1 gusting 3 15.6
2019-Jun-25 08:40 266 0 gusting 2 15.6
2019-Jun-25 08:30 348 1 gusting 4 15.6
2019-Jun-25 08:20 016 1 gusting 5 15.6
2019-Jun-25 08:10 297 0 gusting 2 15.6
2019-Jun-25 08:00 025 0 gusting 5 15.6
2019-Jun-25 07:50 205 0 gusting 1 15.0
2019-Jun-25 07:40 348 1 gusting 2 15.0
2019-Jun-25 07:30 343 1 gusting 3 15.0
2019-Jun-25 07:20 313 1 gusting 4 15.0
2019-Jun-25 07:10 327 15.0
2019-Jun-25 07:00 024 15.0
2019-Jun-25 06:50 092 0 gusting 1 15.0
2019-Jun-25 06:40 302 0 gusting 1 15.0
2019-Jun-25 06:30 261 0 gusting 2 15.0
2019-Jun-25 06:20 257 0 gusting 1 15.0
2019-Jun-25 06:10 133 1 gusting 2 15.0
2019-Jun-25 06:00 182 0 gusting 1 15.0
2019-Jun-25 05:50 125 0 gusting 1 15.0
2019-Jun-25 05:40 297 1 gusting 3 15.0
2019-Jun-25 05:30 260 0 gusting 1 15.0
2019-Jun-25 05:20 198 0 gusting 1 15.0
2019-Jun-24 09:05 154 0 gusting 1 15.6
2019-Jun-24 08:55 247 15.6
2019-Jun-24 08:45 238 15.6
2019-Jun-24 08:35 165 0 gusting 1 15.6
2019-Jun-24 08:25 135 15.6
2019-Jun-24 08:15 186 15.0
2019-Jun-24 08:05 162 0 gusting 1 15.0
2019-Jun-24 07:55 180 15.0
2019-Jun-24 07:45 180 15.0
2019-Jun-24 07:35 15.0
2019-Jun-24 07:25 180 15.0
2019-Jun-24 07:15 180 15.0
2019-Jun-24 07:05 126 0 gusting 1 15.0
2019-Jun-24 06:55 157 15.0
2019-Jun-24 06:45 144 0 gusting 1 14.4
2019-Jun-24 06:35 150 0 gusting 0 14.4
2019-Jun-24 06:25 157 0 gusting 2 14.4
2019-Jun-24 06:15 180 14.4
2019-Jun-24 06:05 075 0 gusting 0 14.4
2019-Jun-24 05:55 103 0 gusting 1 14.4
2019-Jun-24 05:45 045 14.4
2019-Jun-24 05:35 066 0 gusting 1 14.4
2019-Jun-24 05:25 122 0 gusting 1 14.4
2019-Jun-24 05:15 048 0 gusting 1 14.4
2019-Jun-24 05:05 045 14.4
2019-Jun-24 04:55 053 0 gusting 1 14.4
2019-Jun-24 04:45 056 0 gusting 1 14.4
2019-Jun-24 04:35 052 1 gusting 1 14.4
2019-Jun-24 04:25 090 0 gusting 1 14.4
2019-Jun-24 04:15 062 0 gusting 2 14.4
2019-Jun-24 04:05 050 0 gusting 2 14.4
2019-Jun-24 03:55 027 0 gusting 1 14.4
2019-Jun-24 03:45 055 1 gusting 2 14.4
2019-Jun-24 03:35 048 1 gusting 2 14.4
2019-Jun-24 03:25 052 0 gusting 1 14.4
2019-Jun-24 03:15 059 2 gusting 5 14.4
2019-Jun-24 03:05 071 0 gusting 2 13.9
2019-Jun-24 02:55 084 0 gusting 1 13.9
2019-Jun-24 02:45 038 1 gusting 4 13.9
2019-Jun-24 02:35 053 1 gusting 3 13.9
2019-Jun-24 02:25 062 1 gusting 3 13.9
2019-Jun-24 02:15 042 2 gusting 4 13.9
2019-Jun-24 02:05 045 2 gusting 5 13.9
2019-Jun-24 01:55 042 2 gusting 3 13.9
2019-Jun-24 01:45 059 2 gusting 2 13.9
2019-Jun-24 01:35 062 2 gusting 4 13.9
2019-Jun-24 01:25 060 2 gusting 5 13.9
2019-Jun-24 01:15 062 2 gusting 5 13.9
2019-Jun-24 01:05 038 3 gusting 4 13.9
2019-Jun-24 00:55 067 3 gusting 6 13.9
2019-Jun-24 00:45 067 2 gusting 10 13.9
2019-Jun-24 00:35 045 2 gusting 3 14.4
2019-Jun-24 00:25 062 3 gusting 8 14.4
2019-Jun-24 00:15 052 3 gusting 6 14.4
2019-Jun-24 00:05 056 4 gusting 6 14.4